Terminal Aerodrome Forecast
Issued by NWS

Home | Current Version | Previous Version | Text Only | Print | Product List | Glossary On
Versions: 1 2 3 4 5 6 7 8 9 10 11 12 13 14
000
FTUS45 KSLC 191723
TAFENV
TAF
KENV 191723Z 1918/2018 14008KT P6SM FEW050 SCT090
     FM192100 15008KT P6SM VCSH SCT050 SCT080 BKN200
     FM200200 VRB05KT P6SM SCT060 SCT120
     FM201500 33015KT P6SM FEW080 SCT120
      AMD LTD TO CLD VIS AND WIND=

USA.gov is the U.S. government's official web portal to all federal, state and local government web resources and services.